Aviation Digital Data Service (ADDS)

Output produced by TAFs form (1601 UTC 21 September 2017)
found at http://www.aviationweather.gov/adds/tafs/
 
KCWA 211309Z 2113/2212 03004KT P6SM BKN015 
     TEMPO 2114/2116 SCT015 
     FM211600 08006KT P6SM BKN020 
     FM212200 12005KT P6SM VCTS BKN020 BKN100CB 
     FM220600 15005KT P6SM SCT030 BKN050 
     FM220900 17005KT P6SM SCT050
       
KATW 211412Z 2114/2212 06006KT 1 1/2SM BR OVC002 
     TEMPO 2114/2116 4SM BR BKN005 
     FM211600 03008KT P6SM SCT008 BKN015 
     FM212100 10005KT P6SM BKN030 
     FM220000 10005KT P6SM FEW030 BKN120 
     FM220500 16005KT P6SM BKN100 
     FM220900 18005KT 4SM BR SCT120
       
KGRB 211411Z 2114/2212 05010KT P6SM OVC012 
     FM211600 05009KT P6SM SCT012 BKN020 
     FM212100 10005KT P6SM BKN030 
     FM220000 10005KT P6SM FEW030 BKN120 
     FM220500 16005KT P6SM BKN100 
     FM220900 18005KT 4SM BR SCT120
       
KMSN 211557Z 2116/2212 13005KT P6SM BKN008 
     FM211630 13006KT P6SM SCT008 BKN025 
     FM211700 12006KT P6SM SCT025 BKN250 
     FM212100 15008KT P6SM BKN200 
     FM220600 18005KT P6SM SCT250
       
KMKE 211432Z 2115/2218 02005KT P6SM FEW150 BKN250 
     FM211800 12007KT P6SM SCT250 
     FM220700 19005KT P6SM FEW250